createdAt,value
2023-02-14T00:01:40.880Z,18.60
2023-02-14T00:04:09.644Z,20.20
2023-02-14T00:06:39.235Z,18.70
2023-02-14T00:09:18.823Z,18.80
2023-02-14T00:11:47.029Z,18.20
2023-02-14T00:14:35.449Z,19.80
2023-02-14T00:17:04.754Z,17.20
2023-02-14T00:19:34.912Z,17.10
2023-02-14T00:22:04.375Z,16.50
2023-02-14T00:24:32.400Z,17.30
2023-02-14T00:27:00.838Z,17.20
2023-02-14T00:29:31.776Z,17.10
2023-02-14T00:32:00.624Z,16.30
2023-02-14T00:34:29.268Z,17.30
2023-02-14T00:36:57.440Z,15.30
2023-02-14T00:39:25.497Z,14.90
2023-02-14T00:41:53.539Z,15.40
2023-02-14T00:44:21.834Z,15.60
2023-02-14T00:46:49.869Z,14.90
2023-02-14T00:49:18.138Z,14.80
2023-02-14T00:51:46.607Z,14.70
2023-02-14T00:54:14.812Z,16.00
2023-02-14T00:56:42.862Z,14.80
2023-02-14T00:59:10.950Z,15.50
2023-02-14T01:01:39.398Z,14.40
2023-02-14T01:04:08.134Z,15.30
2023-02-14T01:06:36.722Z,14.60
2023-02-14T01:09:04.892Z,14.90
2023-02-14T01:11:35.120Z,15.30
2023-02-14T01:14:03.509Z,14.40
2023-02-14T01:16:31.628Z,14.20
2023-02-14T01:19:01.101Z,14.50
2023-02-14T01:21:31.833Z,13.50
2023-02-14T01:24:06.762Z,14.10
2023-02-14T01:26:36.171Z,13.10
2023-02-14T01:29:05.270Z,13.50
2023-02-14T01:31:35.575Z,13.60
2023-02-14T01:34:04.845Z,13.60
2023-02-14T01:36:38.083Z,14.10
2023-02-14T01:39:10.559Z,14.00
2023-02-14T01:41:41.491Z,13.30
2023-02-14T01:44:15.926Z,13.70
2023-02-14T01:46:45.544Z,13.30
2023-02-14T01:49:26.309Z,13.00
2023-02-14T01:52:05.437Z,11.90
2023-02-14T01:54:38.429Z,12.60
2023-02-14T01:57:10.069Z,13.10
2023-02-14T01:59:43.695Z,13.80
2023-02-14T02:02:12.220Z,11.70
2023-02-14T02:04:45.571Z,12.10
2023-02-14T02:07:21.102Z,12.50
2023-02-14T02:10:00.755Z,12.50
2023-02-14T02:12:30.771Z,11.90
2023-02-14T02:15:01.420Z,12.80
2023-02-14T02:17:35.116Z,12.80
2023-02-14T02:20:14.342Z,11.50
2023-02-14T02:23:04.011Z,12.00
2023-02-14T02:25:38.141Z,10.80
2023-02-14T02:28:09.506Z,12.00
2023-02-14T02:30:51.245Z,13.00
2023-02-14T02:33:49.126Z,11.40
2023-02-14T02:36:42.172Z,11.00
2023-02-14T02:39:22.418Z,12.90
2023-02-14T02:42:04.948Z,11.80
2023-02-14T02:44:45.278Z,11.60
2023-02-14T02:47:22.568Z,11.90
2023-02-14T02:50:13.834Z,11.60
2023-02-14T02:53:15.310Z,11.90
2023-02-14T02:56:15.426Z,10.80
2023-02-14T02:58:46.471Z,11.80
2023-02-14T03:01:20.999Z,12.50
2023-02-14T03:04:14.663Z,12.30
2023-02-14T03:06:45.331Z,12.60
2023-02-14T03:09:33.517Z,12.60
2023-02-14T03:12:17.699Z,11.30
2023-02-14T03:14:57.405Z,11.20
2023-02-14T03:17:30.801Z,12.60
2023-02-14T03:20:18.418Z,12.20
2023-02-14T03:22:57.485Z,12.00
2023-02-14T03:25:34.737Z,12.00
2023-02-14T03:28:31.050Z,10.60
2023-02-14T03:31:45.053Z,12.60
2023-02-14T03:34:19.186Z,11.10
2023-02-14T03:36:59.646Z,11.90
2023-02-14T03:40:06.817Z,10.80
2023-02-14T03:42:50.645Z,10.80
2023-02-14T03:45:27.808Z,11.50
2023-02-14T03:48:00.826Z,10.60
2023-02-14T03:50:31.707Z,12.30
2023-02-14T03:53:01.605Z,11.00
2023-02-14T03:55:49.352Z,11.50
2023-02-14T03:58:24.665Z,10.30
2023-02-14T04:01:06.646Z,10.20
2023-02-14T04:03:39.406Z,9.90
2023-02-14T04:06:08.526Z,10.70
2023-02-14T04:08:36.708Z,11.00
2023-02-14T04:11:05.926Z,11.40
2023-02-14T04:13:37.258Z,11.20
2023-02-14T04:16:06.761Z,10.60
2023-02-14T04:18:53.591Z,10.30
2023-02-14T04:21:21.522Z,11.30
2023-02-14T04:23:49.850Z,11.20
2023-02-14T04:26:18.003Z,11.10
2023-02-14T04:28:45.966Z,10.80
2023-02-14T04:31:14.215Z,10.80
2023-02-14T04:33:42.338Z,11.20
2023-02-14T04:36:10.371Z,11.80
2023-02-14T04:38:38.492Z,11.10
2023-02-14T04:41:06.771Z,10.90
2023-02-14T04:43:35.055Z,9.80
2023-02-14T04:46:03.231Z,11.40
2023-02-14T04:48:31.349Z,10.10
2023-02-14T04:50:59.710Z,11.60
2023-02-14T04:53:28.083Z,12.20
2023-02-14T04:55:56.456Z,11.40
2023-02-14T04:58:24.629Z,10.60
2023-02-14T05:00:52.665Z,12.50
2023-02-14T05:03:20.886Z,11.60
2023-02-14T05:05:49.063Z,11.20
2023-02-14T05:08:18.125Z,11.90
2023-02-14T05:10:46.238Z,11.30
2023-02-14T05:13:14.648Z,11.70
2023-02-14T05:15:45.278Z,10.20
2023-02-14T05:18:13.268Z,11.50
2023-02-14T05:20:41.422Z,11.30
2023-02-14T05:23:13.836Z,10.30
2023-02-14T05:25:42.575Z,11.20
2023-02-14T05:28:11.063Z,10.50
2023-02-14T05:30:39.559Z,10.00
2023-02-14T05:33:07.708Z,9.90
2023-02-14T05:35:35.903Z,10.30
2023-02-14T05:38:04.850Z,11.10
2023-02-14T05:40:33.796Z,10.90
2023-02-14T05:43:01.976Z,10.40
2023-02-14T05:45:30.080Z,10.60
2023-02-14T05:47:58.347Z,11.90
2023-02-14T05:50:26.615Z,9.60
2023-02-14T05:52:56.130Z,9.80
2023-02-14T05:55:25.537Z,10.10
2023-02-14T05:57:53.630Z,9.20
2023-02-14T06:00:23.958Z,9.50
2023-02-14T06:02:52.010Z,9.30
2023-02-14T06:05:21.317Z,9.60
2023-02-14T06:07:52.669Z,9.90
2023-02-14T06:10:23.408Z,9.40
2023-02-14T06:12:54.048Z,9.20
2023-02-14T06:15:22.624Z,9.60
2023-02-14T06:17:52.882Z,9.50
2023-02-14T06:20:22.052Z,8.30
2023-02-14T06:22:50.572Z,8.90
2023-02-14T06:25:19.010Z,8.40
2023-02-14T06:27:49.273Z,9.00
2023-02-14T06:30:18.707Z,8.90
2023-02-14T06:32:46.836Z,9.20
2023-02-14T06:35:15.525Z,8.60
2023-02-14T06:37:45.453Z,9.40
2023-02-14T06:40:14.459Z,10.50
2023-02-14T06:42:42.620Z,10.00
2023-02-14T06:45:11.114Z,9.20
2023-02-14T06:47:39.189Z,9.30
2023-02-14T06:50:08.390Z,9.10
2023-02-14T06:52:36.463Z,9.40
2023-02-14T06:55:05.155Z,9.40
2023-02-14T06:57:33.133Z,9.00
2023-02-14T07:00:01.098Z,9.00
2023-02-14T07:02:29.216Z,8.60
2023-02-14T07:04:57.875Z,9.10
2023-02-14T07:07:26.143Z,9.10
2023-02-14T07:09:54.430Z,9.10
2023-02-14T07:12:22.404Z,9.20
2023-02-14T07:14:50.324Z,9.70
2023-02-14T07:17:18.468Z,9.00
2023-02-14T07:19:46.525Z,9.10
2023-02-14T07:22:14.763Z,8.90
2023-02-14T07:24:42.947Z,9.00
2023-02-14T07:27:10.964Z,8.90
2023-02-14T07:29:39.039Z,9.60
2023-02-14T07:32:07.460Z,9.40
2023-02-14T07:34:35.638Z,9.30
2023-02-14T07:37:03.677Z,8.80
2023-02-14T07:39:32.068Z,8.80
2023-02-14T07:42:00.349Z,8.90
2023-02-14T07:44:28.420Z,9.00
2023-02-14T07:46:56.804Z,9.80
2023-02-14T07:49:24.865Z,7.90
2023-02-14T07:51:52.959Z,8.50
2023-02-14T07:54:21.331Z,9.00
2023-02-14T07:56:49.785Z,9.40
2023-02-14T07:59:17.994Z,7.70
2023-02-14T08:01:46.104Z,9.00
2023-02-14T08:04:14.555Z,9.30
2023-02-14T08:06:43.445Z,8.90
2023-02-14T08:09:11.842Z,8.50
2023-02-14T08:11:58.952Z,9.80
2023-02-14T08:14:27.023Z,9.10
2023-02-14T08:16:55.023Z,9.30
2023-02-14T08:19:23.073Z,8.70
2023-02-14T08:21:51.134Z,9.10
2023-02-14T08:24:19.117Z,8.80
2023-02-14T08:26:47.228Z,8.60
2023-02-14T08:29:16.873Z,8.00
2023-02-14T08:31:45.885Z,8.30
2023-02-14T08:34:15.015Z,8.60
2023-02-14T08:36:43.499Z,9.40
2023-02-14T08:39:11.879Z,8.30
2023-02-14T08:41:39.948Z,9.00
2023-02-14T08:44:07.881Z,9.40
2023-02-14T08:46:36.273Z,8.70
2023-02-14T08:49:04.740Z,8.30
2023-02-14T08:51:32.868Z,8.80
2023-02-14T08:54:01.149Z,8.40
2023-02-14T08:56:29.134Z,8.60
2023-02-14T08:58:57.325Z,9.30
2023-02-14T09:01:25.446Z,9.10
2023-02-14T09:03:53.804Z,8.30
2023-02-14T09:06:21.823Z,8.50
2023-02-14T09:08:50.780Z,8.50
2023-02-14T09:11:22.630Z,9.00
2023-02-14T09:13:55.516Z,8.30
2023-02-14T09:16:25.013Z,8.70
2023-02-14T09:18:54.781Z,8.60
2023-02-14T09:21:26.685Z,8.40
2023-02-14T09:23:55.079Z,8.20
2023-02-14T09:26:23.070Z,8.80
2023-02-14T09:28:51.190Z,8.20
2023-02-14T09:31:21.740Z,8.60
2023-02-14T09:33:51.142Z,8.80
2023-02-14T09:36:19.219Z,8.10
2023-02-14T09:38:47.916Z,7.40
2023-02-14T09:41:48.127Z,8.80
2023-02-14T09:44:56.548Z,8.70
2023-02-14T09:47:43.122Z,7.80
2023-02-14T09:50:24.052Z,8.20
2023-02-14T09:52:57.383Z,8.90
2023-02-14T09:55:32.316Z,8.60
2023-02-14T09:58:00.401Z,8.80
2023-02-14T10:00:37.968Z,8.60
2023-02-14T10:03:42.060Z,8.50
2023-02-14T10:06:27.356Z,8.90
2023-02-14T10:09:01.323Z,8.90
2023-02-14T10:11:30.259Z,8.50
2023-02-14T10:14:01.929Z,8.70
2023-02-14T10:16:39.296Z,10.00
2023-02-14T10:19:14.139Z,8.80
2023-02-14T10:21:48.074Z,8.90
2023-02-14T10:24:38.290Z,9.30
2023-02-14T10:27:32.908Z,8.60
2023-02-14T10:30:03.110Z,8.10
2023-02-14T10:33:13.782Z,8.50
2023-02-14T10:35:48.950Z,8.40
2023-02-14T10:38:44.030Z,9.10
2023-02-14T10:41:49.346Z,8.60
2023-02-14T10:44:26.364Z,8.10
2023-02-14T10:46:57.885Z,8.30
2023-02-14T10:49:36.388Z,8.20
2023-02-14T10:52:38.132Z,8.00
2023-02-14T10:55:30.033Z,7.70
2023-02-14T10:58:04.990Z,8.20
2023-02-14T11:00:37.567Z,7.40
2023-02-14T11:03:08.610Z,8.80
2023-02-14T11:05:45.047Z,8.00
2023-02-14T11:08:22.571Z,8.60
2023-02-14T11:10:51.684Z,7.80
2023-02-14T11:13:39.429Z,8.30
2023-02-14T11:16:12.078Z,7.60
2023-02-14T11:18:41.472Z,7.40
2023-02-14T11:21:24.495Z,7.60
2023-02-14T11:23:52.779Z,7.60
2023-02-14T11:26:25.239Z,7.70
2023-02-14T11:29:01.342Z,7.50
2023-02-14T11:31:34.918Z,7.50
2023-02-14T11:34:23.040Z,7.00
2023-02-14T11:36:51.546Z,7.20
2023-02-14T11:39:32.584Z,6.90
2023-02-14T11:42:05.848Z,7.20
2023-02-14T11:44:37.044Z,7.20
2023-02-14T11:47:28.356Z,6.60
2023-02-14T11:49:57.973Z,6.20
2023-02-14T11:52:29.786Z,6.50
2023-02-14T11:54:58.908Z,6.40
2023-02-14T11:57:35.281Z,7.70
2023-02-14T12:00:16.076Z,7.00
2023-02-14T12:02:50.026Z,6.20
2023-02-14T12:05:47.709Z,6.70
2023-02-14T12:08:23.669Z,6.30
2023-02-14T12:11:22.670Z,6.10
2023-02-14T12:13:55.448Z,6.40
2023-02-14T12:16:35.497Z,6.70
2023-02-14T12:19:10.940Z,6.70
2023-02-14T12:22:03.001Z,5.90
2023-02-14T12:24:48.952Z,5.90
2023-02-14T12:28:04.105Z,6.00
2023-02-14T12:30:35.249Z,6.00
2023-02-14T12:33:06.077Z,6.30
2023-02-14T12:35:34.053Z,6.10
2023-02-14T12:38:29.338Z,5.60
2023-02-14T12:41:21.880Z,6.70
2023-02-14T12:43:53.862Z,6.50
2023-02-14T12:46:35.634Z,5.70
2023-02-14T12:49:03.818Z,5.80
2023-02-14T12:51:50.622Z,6.60
2023-02-14T12:54:52.674Z,6.50
2023-02-14T12:57:23.605Z,6.40
2023-02-14T13:00:04.785Z,6.20
2023-02-14T13:02:46.107Z,6.20
2023-02-14T13:05:41.565Z,5.50
2023-02-14T13:08:35.032Z,5.70
2023-02-14T13:11:21.002Z,5.70
2023-02-14T13:14:04.731Z,6.80
2023-02-14T13:16:41.922Z,6.50
2023-02-14T13:19:44.178Z,6.90
2023-02-14T13:22:18.191Z,6.90
2023-02-14T13:24:50.688Z,6.90
2023-02-14T13:27:23.352Z,7.30
2023-02-14T13:29:59.744Z,6.80
2023-02-14T13:32:33.418Z,6.70
2023-02-14T13:35:02.315Z,6.20
2023-02-14T13:37:31.700Z,7.40
2023-02-14T13:40:05.329Z,7.10
2023-02-14T13:42:49.047Z,6.90
2023-02-14T13:45:51.743Z,7.60
2023-02-14T13:48:23.083Z,6.80
2023-02-14T13:51:06.192Z,8.30
2023-02-14T13:53:46.776Z,7.30
2023-02-14T13:56:17.789Z,8.20
2023-02-14T13:58:48.835Z,7.70
2023-02-14T14:01:29.298Z,8.10
2023-02-14T14:04:03.950Z,9.40
2023-02-14T14:07:12.207Z,7.40
2023-02-14T14:09:43.312Z,7.20
2023-02-14T14:12:26.298Z,8.30
2023-02-14T14:15:06.828Z,8.40
2023-02-14T14:17:42.919Z,8.00
2023-02-14T14:20:16.824Z,8.20
2023-02-14T14:22:56.919Z,8.20
2023-02-14T14:25:38.337Z,8.90
2023-02-14T14:28:19.620Z,8.20
2023-02-14T14:30:48.698Z,8.50
2023-02-14T14:33:32.445Z,9.70
2023-02-14T14:36:21.409Z,8.30
2023-02-14T14:38:52.434Z,9.20
2023-02-14T14:41:28.930Z,10.00
2023-02-14T14:43:59.822Z,8.30
2023-02-14T14:46:28.026Z,8.90
2023-02-14T14:48:57.244Z,9.00
2023-02-14T14:51:32.385Z,9.70
2023-02-14T14:54:07.205Z,9.70
2023-02-14T14:56:39.884Z,9.30
2023-02-14T14:59:17.375Z,9.50
2023-02-14T15:01:46.579Z,9.30
2023-02-14T15:04:14.602Z,8.90
2023-02-14T15:06:42.940Z,9.50
2023-02-14T15:09:16.749Z,9.20
2023-02-14T15:12:05.495Z,9.80
2023-02-14T15:14:42.629Z,10.20
2023-02-14T15:17:32.905Z,9.50
2023-02-14T15:20:08.608Z,9.60
2023-02-14T15:22:46.220Z,9.20
2023-02-14T15:25:21.388Z,9.90
2023-02-14T15:27:50.487Z,9.50
2023-02-14T15:30:34.406Z,9.40
2023-02-14T15:33:04.838Z,10.00
2023-02-14T15:35:35.448Z,9.30
2023-02-14T15:38:07.072Z,9.00
2023-02-14T15:40:36.021Z,10.00
2023-02-14T15:43:22.191Z,9.60
2023-02-14T15:48:23.863Z,9.30
2023-02-14T15:50:56.006Z,10.00
2023-02-14T15:53:44.686Z,9.50
2023-02-14T15:56:24.905Z,8.80
2023-02-14T15:59:00.530Z,8.80
2023-02-14T16:01:30.441Z,9.50
2023-02-14T16:04:02.566Z,9.50
2023-02-14T16:06:50.202Z,9.10
2023-02-14T16:09:29.825Z,9.30
2023-02-14T16:11:57.779Z,9.60
2023-02-14T16:14:35.489Z,9.10
2023-02-14T16:17:14.418Z,10.20
2023-02-14T16:19:45.678Z,8.90
2023-02-14T16:22:34.797Z,9.60
2023-02-14T16:25:02.796Z,9.50
2023-02-14T16:27:30.970Z,9.90
2023-02-14T16:29:59.314Z,10.30
2023-02-14T16:32:27.748Z,10.50
2023-02-14T16:34:55.813Z,10.90
2023-02-14T16:37:29.217Z,11.10
2023-02-14T16:40:00.149Z,10.80
2023-02-14T16:42:28.429Z,10.90
2023-02-14T16:44:58.044Z,11.20
2023-02-14T16:47:27.980Z,12.00
2023-02-14T16:49:56.248Z,10.80
2023-02-14T16:52:28.828Z,11.10
2023-02-14T16:54:57.323Z,11.50
2023-02-14T16:57:30.686Z,10.40
2023-02-14T16:59:58.802Z,10.60
2023-02-14T17:02:28.670Z,10.10
2023-02-14T17:04:57.312Z,10.40
2023-02-14T17:07:29.474Z,9.40
2023-02-14T17:10:03.529Z,8.90
2023-02-14T17:12:38.064Z,8.90
2023-02-14T17:15:13.027Z,10.00
2023-02-14T17:17:42.019Z,9.00
2023-02-14T17:20:11.110Z,8.70
2023-02-14T17:22:42.629Z,8.80
2023-02-14T17:25:11.375Z,8.10
2023-02-14T17:27:43.965Z,8.60
2023-02-14T17:30:13.740Z,8.10
2023-02-14T17:32:42.909Z,8.80
2023-02-14T17:35:12.095Z,8.90
2023-02-14T17:37:40.359Z,9.10
2023-02-14T17:40:09.993Z,7.40
2023-02-14T17:42:38.957Z,6.90
2023-02-14T17:45:08.549Z,7.00
2023-02-14T17:47:36.658Z,7.10
2023-02-14T17:50:05.444Z,7.20
2023-02-14T17:52:33.618Z,7.40
2023-02-14T17:55:01.697Z,6.80
2023-02-14T17:57:29.878Z,6.80
2023-02-14T17:59:58.766Z,6.70
2023-02-14T18:02:27.246Z,6.90
2023-02-14T18:04:55.303Z,7.90
2023-02-14T18:07:24.030Z,7.30
2023-02-14T18:09:52.384Z,6.50
2023-02-14T18:12:21.103Z,7.10
2023-02-14T18:14:49.405Z,7.10
2023-02-14T18:17:17.667Z,6.80
2023-02-14T18:19:46.871Z,6.50
2023-02-14T18:22:15.044Z,7.10
2023-02-14T18:24:43.234Z,7.60
2023-02-14T18:27:11.293Z,6.80
2023-02-14T18:29:39.683Z,7.30
2023-02-14T18:32:07.804Z,7.80
2023-02-14T18:34:38.246Z,7.10
2023-02-14T18:37:07.305Z,7.60
2023-02-14T18:39:35.268Z,7.40
2023-02-14T18:42:04.668Z,7.10
2023-02-14T18:44:33.675Z,7.60
2023-02-14T18:47:02.845Z,6.90
2023-02-14T18:49:31.247Z,7.40
2023-02-14T18:52:00.446Z,6.90
2023-02-14T18:54:28.437Z,6.70
2023-02-14T18:56:56.493Z,7.50
2023-02-14T18:59:25.298Z,6.90
2023-02-14T19:01:53.374Z,7.10
2023-02-14T19:04:21.733Z,6.80
2023-02-14T19:06:49.844Z,6.90
2023-02-14T19:09:18.831Z,6.80
2023-02-14T19:11:47.026Z,6.60
2023-02-14T19:14:15.389Z,7.10
2023-02-14T19:16:51.165Z,6.30
2023-02-14T19:19:20.082Z,6.70
2023-02-14T19:21:48.593Z,6.70
2023-02-14T19:24:18.649Z,6.90
2023-02-14T19:26:47.346Z,6.60
2023-02-14T19:29:18.097Z,7.40
2023-02-14T19:31:49.955Z,6.90
2023-02-14T19:34:21.026Z,6.90
2023-02-14T19:36:51.761Z,6.80
2023-02-14T19:39:21.418Z,7.10
2023-02-14T19:41:49.917Z,6.90
2023-02-14T19:44:18.805Z,6.80
2023-02-14T19:46:47.786Z,6.90
2023-02-14T19:49:19.306Z,7.80
2023-02-14T19:51:49.005Z,6.90
2023-02-14T19:54:17.360Z,7.20
2023-02-14T19:56:46.982Z,8.20
2023-02-14T19:59:20.218Z,7.00
2023-02-14T20:01:54.849Z,7.20
2023-02-14T20:04:25.926Z,7.80
2023-02-14T20:06:54.648Z,7.30
2023-02-14T20:09:23.709Z,7.60
2023-02-14T20:11:56.925Z,6.70
2023-02-14T20:14:35.960Z,7.60
2023-02-14T20:17:08.942Z,7.70
2023-02-14T20:19:38.005Z,7.80
2023-02-14T20:22:08.291Z,7.80
2023-02-14T20:24:36.518Z,7.10
2023-02-14T20:27:05.231Z,8.10
2023-02-14T20:29:33.299Z,7.10
2023-02-14T20:32:03.761Z,6.90
2023-02-14T20:34:32.012Z,7.40
2023-02-14T20:37:00.497Z,7.10
2023-02-14T20:39:31.626Z,7.30
2023-02-14T20:42:01.258Z,7.40
2023-02-14T20:44:29.948Z,7.00
2023-02-14T20:46:58.255Z,7.80
2023-02-14T20:49:28.270Z,7.70
2023-02-14T20:51:56.959Z,7.30
2023-02-14T20:54:27.524Z,8.30
2023-02-14T20:56:56.068Z,7.80
2023-02-14T20:59:27.175Z,7.60
2023-02-14T21:01:57.155Z,9.10
2023-02-14T21:04:26.044Z,7.80
2023-02-14T21:06:54.621Z,8.20
2023-02-14T21:09:22.689Z,8.10
2023-02-14T21:11:53.421Z,8.70
2023-02-14T21:14:21.458Z,7.70
2023-02-14T21:16:49.773Z,8.10
2023-02-14T21:19:18.284Z,7.70
2023-02-14T21:21:46.337Z,8.50
2023-02-14T21:24:16.002Z,8.20
2023-02-14T21:26:44.857Z,7.50
2023-02-14T21:29:12.933Z,8.40
2023-02-14T21:31:42.481Z,7.40
2023-02-14T21:34:11.130Z,7.60
2023-02-14T21:36:39.199Z,7.90
2023-02-14T21:39:07.790Z,8.50
2023-02-14T21:41:36.792Z,8.40
2023-02-14T21:44:06.375Z,7.10
2023-02-14T21:46:38.684Z,7.30
2023-02-14T21:49:25.697Z,7.90
2023-02-14T21:51:53.890Z,7.70
2023-02-14T21:54:22.157Z,8.40
2023-02-14T21:56:50.122Z,7.50
2023-02-14T21:59:18.390Z,7.30
2023-02-14T22:01:46.583Z,7.40
2023-02-14T22:04:15.067Z,7.90
2023-02-14T22:06:43.956Z,7.70
2023-02-14T22:09:14.022Z,6.50
2023-02-14T22:11:42.569Z,6.70
2023-02-14T22:14:11.216Z,7.40
2023-02-14T22:16:39.943Z,7.10
2023-02-14T22:19:12.722Z,7.60
2023-02-14T22:21:41.835Z,7.60
2023-02-14T22:24:09.868Z,8.30
2023-02-14T22:26:43.714Z,8.00
2023-02-14T22:29:12.827Z,7.40
2023-02-14T22:31:43.566Z,7.90
2023-02-14T22:34:14.573Z,7.50
2023-02-14T22:36:42.611Z,7.30
2023-02-14T22:39:14.056Z,7.00
2023-02-14T22:41:42.534Z,8.00
2023-02-14T22:44:10.799Z,7.60
2023-02-14T22:46:38.919Z,7.50
2023-02-14T22:49:08.072Z,7.00
2023-02-14T22:51:43.596Z,7.90
2023-02-14T22:54:15.194Z,7.80
2023-02-14T22:56:45.696Z,7.40
2023-02-14T22:59:21.164Z,7.40
2023-02-14T23:01:51.198Z,7.20
2023-02-14T23:04:25.062Z,7.50
2023-02-14T23:06:54.069Z,8.10
2023-02-14T23:09:23.553Z,7.90
2023-02-14T23:11:52.175Z,7.00
2023-02-14T23:14:39.889Z,7.70
2023-02-14T23:17:25.986Z,7.30
2023-02-14T23:20:12.752Z,7.40
2023-02-14T23:22:41.369Z,6.90
2023-02-14T23:25:12.354Z,7.50
2023-02-14T23:27:47.235Z,8.20
2023-02-14T23:30:17.813Z,7.40
2023-02-14T23:32:45.851Z,7.60
2023-02-14T23:35:14.123Z,8.10
2023-02-14T23:37:42.188Z,8.00
2023-02-14T23:40:10.696Z,7.60
2023-02-14T23:42:39.180Z,7.10
2023-02-14T23:45:26.632Z,8.00
2023-02-14T23:47:54.733Z,7.40
2023-02-14T23:50:22.860Z,7.50
2023-02-14T23:52:51.246Z,8.10
2023-02-14T23:55:19.517Z,7.90
2023-02-14T23:57:47.638Z,8.00
